sensor_id;sensor_type;location;lat;lon;timestamp;P1;durP1;ratioP1;P2;durP2;ratioP2
16775;SDS011;8505;49.456;8.164;2023-06-10T00:01:53;10.02;;;8.52;;
16775;SDS011;8505;49.456;8.164;2023-06-10T00:04:25;11.52;;;8.98;;
16775;SDS011;8505;49.456;8.164;2023-06-10T00:06:54;12.47;;;8.60;;
16775;SDS011;8505;49.456;8.164;2023-06-10T00:09:23;10.50;;;8.77;;
16775;SDS011;8505;49.456;8.164;2023-06-10T00:11:52;11.75;;;8.93;;
16775;SDS011;8505;49.456;8.164;2023-06-10T00:14:19;9.98;;;8.70;;
16775;SDS011;8505;49.456;8.164;2023-06-10T00:16:47;10.70;;;8.93;;
16775;SDS011;8505;49.456;8.164;2023-06-10T00:19:15;11.93;;;9.07;;
16775;SDS011;8505;49.456;8.164;2023-06-10T00:21:46;14.63;;;9.40;;
16775;SDS011;8505;49.456;8.164;2023-06-10T00:24:14;12.57;;;8.90;;
16775;SDS011;8505;49.456;8.164;2023-06-10T00:26:42;11.07;;;9.00;;
16775;SDS011;8505;49.456;8.164;2023-06-10T00:29:10;10.80;;;9.18;;
16775;SDS011;8505;49.456;8.164;2023-06-10T00:31:38;13.30;;;9.40;;
16775;SDS011;8505;49.456;8.164;2023-06-10T00:34:06;11.73;;;9.10;;
16775;SDS011;8505;49.456;8.164;2023-06-10T00:36:34;12.30;;;9.53;;
16775;SDS011;8505;49.456;8.164;2023-06-10T00:39:04;12.65;;;9.50;;
16775;SDS011;8505;49.456;8.164;2023-06-10T00:41:31;12.40;;;9.75;;
16775;SDS011;8505;49.456;8.164;2023-06-10T00:44:00;12.68;;;9.85;;
16775;SDS011;8505;49.456;8.164;2023-06-10T00:46:28;12.95;;;9.48;;
16775;SDS011;8505;49.456;8.164;2023-06-10T00:48:58;11.90;;;9.60;;
16775;SDS011;8505;49.456;8.164;2023-06-10T00:51:26;12.27;;;9.83;;
16775;SDS011;8505;49.456;8.164;2023-06-10T00:53:55;12.55;;;9.88;;
16775;SDS011;8505;49.456;8.164;2023-06-10T00:56:25;11.88;;;9.40;;
16775;SDS011;8505;49.456;8.164;2023-06-10T00:58:53;11.45;;;9.50;;
16775;SDS011;8505;49.456;8.164;2023-06-10T01:01:20;12.45;;;9.90;;
16775;SDS011;8505;49.456;8.164;2023-06-10T01:03:48;11.20;;;9.70;;
16775;SDS011;8505;49.456;8.164;2023-06-10T01:06:18;12.07;;;9.70;;
16775;SDS011;8505;49.456;8.164;2023-06-10T01:08:54;11.43;;;9.77;;
16775;SDS011;8505;49.456;8.164;2023-06-10T01:11:29;13.07;;;10.25;;
16775;SDS011;8505;49.456;8.164;2023-06-10T01:14:03;12.57;;;10.27;;
16775;SDS011;8505;49.456;8.164;2023-06-10T01:16:34;13.32;;;9.93;;
16775;SDS011;8505;49.456;8.164;2023-06-10T01:19:03;11.68;;;9.85;;
16775;SDS011;8505;49.456;8.164;2023-06-10T01:21:34;12.50;;;10.03;;
16775;SDS011;8505;49.456;8.164;2023-06-10T01:24:02;12.07;;;10.15;;
16775;SDS011;8505;49.456;8.164;2023-06-10T01:26:34;11.35;;;10.02;;
16775;SDS011;8505;49.456;8.164;2023-06-10T01:29:06;13.43;;;10.17;;
16775;SDS011;8505;49.456;8.164;2023-06-10T01:31:41;13.25;;;10.40;;
16775;SDS011;8505;49.456;8.164;2023-06-10T01:34:16;13.10;;;10.83;;
16775;SDS011;8505;49.456;8.164;2023-06-10T01:36:47;12.50;;;10.70;;
16775;SDS011;8505;49.456;8.164;2023-06-10T01:39:17;12.43;;;10.32;;
16775;SDS011;8505;49.456;8.164;2023-06-10T01:41:48;12.00;;;10.67;;
16775;SDS011;8505;49.456;8.164;2023-06-10T01:44:17;12.93;;;10.68;;
16775;SDS011;8505;49.456;8.164;2023-06-10T01:46:46;12.30;;;10.88;;
16775;SDS011;8505;49.456;8.164;2023-06-10T01:49:14;12.65;;;10.38;;
16775;SDS011;8505;49.456;8.164;2023-06-10T01:51:42;13.27;;;10.70;;
16775;SDS011;8505;49.456;8.164;2023-06-10T01:54:11;13.03;;;10.67;;
16775;SDS011;8505;49.456;8.164;2023-06-10T01:56:39;13.57;;;10.63;;
16775;SDS011;8505;49.456;8.164;2023-06-10T01:59:06;12.25;;;10.68;;
16775;SDS011;8505;49.456;8.164;2023-06-10T02:01:34;12.40;;;11.05;;
16775;SDS011;8505;49.456;8.164;2023-06-10T02:04:02;12.43;;;10.83;;
16775;SDS011;8505;49.456;8.164;2023-06-10T02:06:30;15.02;;;11.20;;
16775;SDS011;8505;49.456;8.164;2023-06-10T02:08:58;12.93;;;10.85;;
16775;SDS011;8505;49.456;8.164;2023-06-10T02:11:27;14.77;;;11.05;;
16775;SDS011;8505;49.456;8.164;2023-06-10T02:13:55;13.48;;;11.45;;
16775;SDS011;8505;49.456;8.164;2023-06-10T02:16:23;13.45;;;11.05;;
16775;SDS011;8505;49.456;8.164;2023-06-10T02:18:51;14.60;;;11.27;;
16775;SDS011;8505;49.456;8.164;2023-06-10T02:21:19;13.57;;;11.50;;
16775;SDS011;8505;49.456;8.164;2023-06-10T02:23:47;13.63;;;11.02;;
16775;SDS011;8505;49.456;8.164;2023-06-10T02:26:14;12.80;;;11.43;;
16775;SDS011;8505;49.456;8.164;2023-06-10T02:28:44;16.10;;;11.25;;
16775;SDS011;8505;49.456;8.164;2023-06-10T02:31:11;13.05;;;11.35;;
16775;SDS011;8505;49.456;8.164;2023-06-10T02:33:40;13.52;;;11.30;;
16775;SDS011;8505;49.456;8.164;2023-06-10T02:36:08;13.70;;;11.95;;
16775;SDS011;8505;49.456;8.164;2023-06-10T02:38:39;14.55;;;12.00;;
16775;SDS011;8505;49.456;8.164;2023-06-10T02:41:07;17.25;;;12.07;;
16775;SDS011;8505;49.456;8.164;2023-06-10T02:43:35;13.98;;;11.35;;
16775;SDS011;8505;49.456;8.164;2023-06-10T02:46:04;14.20;;;11.48;;
16775;SDS011;8505;49.456;8.164;2023-06-10T02:48:39;14.40;;;11.50;;
16775;SDS011;8505;49.456;8.164;2023-06-10T02:51:08;13.63;;;11.45;;
16775;SDS011;8505;49.456;8.164;2023-06-10T02:53:36;13.52;;;11.55;;
16775;SDS011;8505;49.456;8.164;2023-06-10T02:56:04;14.17;;;11.73;;
16775;SDS011;8505;49.456;8.164;2023-06-10T02:58:32;14.20;;;11.55;;
16775;SDS011;8505;49.456;8.164;2023-06-10T03:01:00;14.63;;;11.90;;
16775;SDS011;8505;49.456;8.164;2023-06-10T03:03:29;14.50;;;11.13;;
16775;SDS011;8505;49.456;8.164;2023-06-10T03:05:59;14.30;;;11.82;;
16775;SDS011;8505;49.456;8.164;2023-06-10T03:08:27;13.93;;;11.80;;
16775;SDS011;8505;49.456;8.164;2023-06-10T03:10:56;13.23;;;11.80;;
16775;SDS011;8505;49.456;8.164;2023-06-10T03:13:23;13.70;;;11.80;;
16775;SDS011;8505;49.456;8.164;2023-06-10T03:15:51;13.93;;;11.57;;
16775;SDS011;8505;49.456;8.164;2023-06-10T03:18:19;13.73;;;11.73;;
16775;SDS011;8505;49.456;8.164;2023-06-10T03:20:50;14.48;;;11.85;;
16775;SDS011;8505;49.456;8.164;2023-06-10T03:23:18;14.38;;;11.90;;
16775;SDS011;8505;49.456;8.164;2023-06-10T03:25:46;14.57;;;11.77;;
16775;SDS011;8505;49.456;8.164;2023-06-10T03:28:14;14.15;;;11.55;;
16775;SDS011;8505;49.456;8.164;2023-06-10T03:30:42;12.80;;;11.50;;
16775;SDS011;8505;49.456;8.164;2023-06-10T03:33:10;13.82;;;11.40;;
16775;SDS011;8505;49.456;8.164;2023-06-10T03:35:38;12.82;;;11.30;;
16775;SDS011;8505;49.456;8.164;2023-06-10T03:38:07;12.90;;;11.50;;
16775;SDS011;8505;49.456;8.164;2023-06-10T03:40:35;15.38;;;11.77;;
16775;SDS011;8505;49.456;8.164;2023-06-10T03:43:03;13.48;;;11.80;;
16775;SDS011;8505;49.456;8.164;2023-06-10T03:45:31;15.00;;;12.18;;
16775;SDS011;8505;49.456;8.164;2023-06-10T03:48:00;12.90;;;11.52;;
16775;SDS011;8505;49.456;8.164;2023-06-10T03:50:30;14.20;;;11.80;;
16775;SDS011;8505;49.456;8.164;2023-06-10T03:52:58;13.85;;;11.75;;
16775;SDS011;8505;49.456;8.164;2023-06-10T03:55:27;13.90;;;11.97;;
16775;SDS011;8505;49.456;8.164;2023-06-10T03:57:55;15.30;;;11.50;;
16775;SDS011;8505;49.456;8.164;2023-06-10T04:00:22;13.20;;;11.30;;
16775;SDS011;8505;49.456;8.164;2023-06-10T04:02:50;13.68;;;11.20;;
16775;SDS011;8505;49.456;8.164;2023-06-10T04:05:19;14.70;;;11.65;;
16775;SDS011;8505;49.456;8.164;2023-06-10T04:07:48;12.90;;;11.43;;
16775;SDS011;8505;49.456;8.164;2023-06-10T04:10:16;13.18;;;11.02;;
16775;SDS011;8505;49.456;8.164;2023-06-10T04:12:45;13.52;;;11.43;;
16775;SDS011;8505;49.456;8.164;2023-06-10T04:15:13;13.32;;;11.30;;
16775;SDS011;8505;49.456;8.164;2023-06-10T04:17:40;14.43;;;11.63;;
16775;SDS011;8505;49.456;8.164;2023-06-10T04:20:09;14.15;;;11.25;;
16775;SDS011;8505;49.456;8.164;2023-06-10T04:22:37;13.77;;;10.95;;
16775;SDS011;8505;49.456;8.164;2023-06-10T04:25:05;14.27;;;11.00;;
16775;SDS011;8505;49.456;8.164;2023-06-10T04:27:34;13.90;;;10.57;;
16775;SDS011;8505;49.456;8.164;2023-06-10T04:30:03;14.30;;;11.18;;
16775;SDS011;8505;49.456;8.164;2023-06-10T04:32:32;13.68;;;10.70;;
16775;SDS011;8505;49.456;8.164;2023-06-10T04:35:00;13.33;;;10.97;;
16775;SDS011;8505;49.456;8.164;2023-06-10T04:37:28;15.00;;;11.60;;
16775;SDS011;8505;49.456;8.164;2023-06-10T04:39:56;13.77;;;10.70;;
16775;SDS011;8505;49.456;8.164;2023-06-10T04:42:25;14.68;;;11.43;;
16775;SDS011;8505;49.456;8.164;2023-06-10T04:44:52;12.05;;;10.85;;
16775;SDS011;8505;49.456;8.164;2023-06-10T04:47:22;13.10;;;10.80;;
16775;SDS011;8505;49.456;8.164;2023-06-10T04:49:49;14.07;;;11.38;;
16775;SDS011;8505;49.456;8.164;2023-06-10T04:52:17;13.57;;;10.95;;
16775;SDS011;8505;49.456;8.164;2023-06-10T04:54:46;13.55;;;11.00;;
16775;SDS011;8505;49.456;8.164;2023-06-10T04:57:14;13.00;;;11.05;;
16775;SDS011;8505;49.456;8.164;2023-06-10T04:59:42;13.67;;;11.17;;
16775;SDS011;8505;49.456;8.164;2023-06-10T05:02:10;14.05;;;11.10;;
16775;SDS011;8505;49.456;8.164;2023-06-10T05:04:40;13.70;;;10.87;;
16775;SDS011;8505;49.456;8.164;2023-06-10T05:07:08;13.73;;;10.93;;
16775;SDS011;8505;49.456;8.164;2023-06-10T05:09:35;12.98;;;10.80;;
16775;SDS011;8505;49.456;8.164;2023-06-10T05:12:03;13.95;;;10.73;;
16775;SDS011;8505;49.456;8.164;2023-06-10T05:14:32;14.65;;;10.55;;
16775;SDS011;8505;49.456;8.164;2023-06-10T05:17:00;12.23;;;10.80;;
16775;SDS011;8505;49.456;8.164;2023-06-10T05:19:28;11.82;;;10.13;;
16775;SDS011;8505;49.456;8.164;2023-06-10T05:21:58;12.27;;;10.43;;
16775;SDS011;8505;49.456;8.164;2023-06-10T05:24:25;13.25;;;10.88;;
16775;SDS011;8505;49.456;8.164;2023-06-10T05:26:53;12.00;;;10.50;;
16775;SDS011;8505;49.456;8.164;2023-06-10T05:29:21;14.90;;;10.75;;
16775;SDS011;8505;49.456;8.164;2023-06-10T05:31:49;12.40;;;10.48;;
16775;SDS011;8505;49.456;8.164;2023-06-10T05:34:17;13.32;;;10.23;;
16775;SDS011;8505;49.456;8.164;2023-06-10T05:36:45;13.05;;;10.25;;
16775;SDS011;8505;49.456;8.164;2023-06-10T05:39:14;11.93;;;10.23;;
16775;SDS011;8505;49.456;8.164;2023-06-10T05:41:42;11.10;;;9.90;;
16775;SDS011;8505;49.456;8.164;2023-06-10T05:44:10;11.20;;;9.98;;
16775;SDS011;8505;49.456;8.164;2023-06-10T05:46:39;12.07;;;9.85;;
16775;SDS011;8505;49.456;8.164;2023-06-10T05:49:07;11.30;;;10.10;;
16775;SDS011;8505;49.456;8.164;2023-06-10T05:51:35;12.70;;;9.47;;
16775;SDS011;8505;49.456;8.164;2023-06-10T05:54:04;10.75;;;9.15;;
16775;SDS011;8505;49.456;8.164;2023-06-10T05:56:33;10.32;;;9.23;;
16775;SDS011;8505;49.456;8.164;2023-06-10T05:59:01;10.80;;;9.30;;
16775;SDS011;8505;49.456;8.164;2023-06-10T06:01:29;10.40;;;8.93;;
16775;SDS011;8505;49.456;8.164;2023-06-10T06:03:57;10.35;;;8.40;;
16775;SDS011;8505;49.456;8.164;2023-06-10T06:06:24;10.10;;;8.52;;
16775;SDS011;8505;49.456;8.164;2023-06-10T06:08:52;9.37;;;8.07;;
16775;SDS011;8505;49.456;8.164;2023-06-10T06:11:20;10.18;;;8.18;;
16775;SDS011;8505;49.456;8.164;2023-06-10T06:13:49;8.77;;;7.80;;
16775;SDS011;8505;49.456;8.164;2023-06-10T06:16:19;11.23;;;7.93;;
16775;SDS011;8505;49.456;8.164;2023-06-10T06:18:47;9.38;;;7.28;;
16775;SDS011;8505;49.456;8.164;2023-06-10T06:21:14;9.02;;;7.35;;
16775;SDS011;8505;49.456;8.164;2023-06-10T06:23:42;10.37;;;7.30;;
16775;SDS011;8505;49.456;8.164;2023-06-10T06:26:10;9.82;;;7.00;;
16775;SDS011;8505;49.456;8.164;2023-06-10T06:28:38;9.30;;;6.60;;
16775;SDS011;8505;49.456;8.164;2023-06-10T06:31:07;9.82;;;6.82;;
16775;SDS011;8505;49.456;8.164;2023-06-10T06:33:35;10.00;;;7.05;;
16775;SDS011;8505;49.456;8.164;2023-06-10T06:36:04;9.00;;;6.53;;
16775;SDS011;8505;49.456;8.164;2023-06-10T06:38:32;9.60;;;6.43;;
16775;SDS011;8505;49.456;8.164;2023-06-10T06:40:59;9.85;;;6.60;;
16775;SDS011;8505;49.456;8.164;2023-06-10T06:43:29;8.53;;;6.20;;
16775;SDS011;8505;49.456;8.164;2023-06-10T06:45:57;6.65;;;6.00;;
16775;SDS011;8505;49.456;8.164;2023-06-10T06:48:26;8.85;;;6.68;;
16775;SDS011;8505;49.456;8.164;2023-06-10T06:50:54;10.23;;;7.05;;
16775;SDS011;8505;49.456;8.164;2023-06-10T06:53:24;7.50;;;6.50;;
16775;SDS011;8505;49.456;8.164;2023-06-10T06:55:57;9.80;;;6.68;;
16775;SDS011;8505;49.456;8.164;2023-06-10T06:58:25;7.25;;;6.18;;
16775;SDS011;8505;49.456;8.164;2023-06-10T07:00:52;8.18;;;6.20;;
16775;SDS011;8505;49.456;8.164;2023-06-10T07:03:20;12.25;;;6.60;;
16775;SDS011;8505;49.456;8.164;2023-06-10T07:05:50;9.82;;;6.60;;
16775;SDS011;8505;49.456;8.164;2023-06-10T07:08:17;8.87;;;6.60;;
16775;SDS011;8505;49.456;8.164;2023-06-10T07:10:45;7.30;;;6.20;;
16775;SDS011;8505;49.456;8.164;2023-06-10T07:13:15;10.35;;;5.95;;
16775;SDS011;8505;49.456;8.164;2023-06-10T07:15:43;7.82;;;6.05;;
16775;SDS011;8505;49.456;8.164;2023-06-10T07:18:11;10.07;;;6.20;;
16775;SDS011;8505;49.456;8.164;2023-06-10T07:20:39;8.93;;;6.30;;
16775;SDS011;8505;49.456;8.164;2023-06-10T07:23:09;10.60;;;6.28;;
16775;SDS011;8505;49.456;8.164;2023-06-10T07:25:37;9.10;;;6.45;;
16775;SDS011;8505;49.456;8.164;2023-06-10T07:28:05;7.88;;;5.90;;
16775;SDS011;8505;49.456;8.164;2023-06-10T07:30:32;10.43;;;6.07;;
16775;SDS011;8505;49.456;8.164;2023-06-10T07:33:00;7.75;;;5.78;;
16775;SDS011;8505;49.456;8.164;2023-06-10T07:35:29;8.02;;;5.75;;
16775;SDS011;8505;49.456;8.164;2023-06-10T07:37:56;8.07;;;5.85;;
16775;SDS011;8505;49.456;8.164;2023-06-10T07:40:26;8.43;;;5.75;;
16775;SDS011;8505;49.456;8.164;2023-06-10T07:42:54;8.70;;;5.40;;
16775;SDS011;8505;49.456;8.164;2023-06-10T07:45:22;9.05;;;6.20;;
16775;SDS011;8505;49.456;8.164;2023-06-10T07:47:51;7.50;;;5.67;;
16775;SDS011;8505;49.456;8.164;2023-06-10T07:50:19;7.13;;;5.30;;
16775;SDS011;8505;49.456;8.164;2023-06-10T07:52:47;7.13;;;5.05;;
16775;SDS011;8505;49.456;8.164;2023-06-10T07:55:15;7.40;;;5.45;;
16775;SDS011;8505;49.456;8.164;2023-06-10T07:57:44;6.78;;;5.18;;
16775;SDS011;8505;49.456;8.164;2023-06-10T08:00:12;7.45;;;5.00;;
16775;SDS011;8505;49.456;8.164;2023-06-10T08:02:40;7.43;;;5.38;;
16775;SDS011;8505;49.456;8.164;2023-06-10T08:05:08;9.23;;;5.53;;
16775;SDS011;8505;49.456;8.164;2023-06-10T08:07:37;8.35;;;5.43;;
16775;SDS011;8505;49.456;8.164;2023-06-10T08:10:06;7.70;;;5.63;;
16775;SDS011;8505;49.456;8.164;2023-06-10T08:12:35;6.53;;;5.80;;
16775;SDS011;8505;49.456;8.164;2023-06-10T08:15:05;6.72;;;4.95;;
16775;SDS011;8505;49.456;8.164;2023-06-10T08:17:34;5.85;;;4.68;;
16775;SDS011;8505;49.456;8.164;2023-06-10T08:20:02;6.30;;;4.60;;
16775;SDS011;8505;49.456;8.164;2023-06-10T08:22:31;5.68;;;4.88;;
16775;SDS011;8505;49.456;8.164;2023-06-10T08:24:59;6.03;;;5.00;;
16775;SDS011;8505;49.456;8.164;2023-06-10T08:27:27;7.00;;;5.35;;
16775;SDS011;8505;49.456;8.164;2023-06-10T08:29:55;7.75;;;5.72;;
16775;SDS011;8505;49.456;8.164;2023-06-10T08:32:27;7.10;;;4.90;;
16775;SDS011;8505;49.456;8.164;2023-06-10T08:34:55;9.02;;;5.28;;
16775;SDS011;8505;49.456;8.164;2023-06-10T08:37:23;6.80;;;4.90;;
16775;SDS011;8505;49.456;8.164;2023-06-10T08:39:51;7.72;;;5.15;;
16775;SDS011;8505;49.456;8.164;2023-06-10T08:42:21;7.43;;;4.97;;
16775;SDS011;8505;49.456;8.164;2023-06-10T08:44:53;7.55;;;5.30;;
16775;SDS011;8505;49.456;8.164;2023-06-10T08:47:22;8.27;;;5.28;;
16775;SDS011;8505;49.456;8.164;2023-06-10T08:49:55;6.63;;;5.03;;
16775;SDS011;8505;49.456;8.164;2023-06-10T08:52:27;6.72;;;5.10;;
16775;SDS011;8505;49.456;8.164;2023-06-10T08:54:57;7.93;;;5.30;;
16775;SDS011;8505;49.456;8.164;2023-06-10T08:57:27;7.53;;;5.27;;
16775;SDS011;8505;49.456;8.164;2023-06-10T08:59:57;7.10;;;5.47;;
16775;SDS011;8505;49.456;8.164;2023-06-10T09:02:25;5.82;;;5.00;;
16775;SDS011;8505;49.456;8.164;2023-06-10T09:04:57;5.97;;;5.05;;
16775;SDS011;8505;49.456;8.164;2023-06-10T09:07:25;7.53;;;5.65;;
16775;SDS011;8505;49.456;8.164;2023-06-10T09:09:53;7.47;;;5.00;;
16775;SDS011;8505;49.456;8.164;2023-06-10T09:12:23;8.38;;;5.28;;
16775;SDS011;8505;49.456;8.164;2023-06-10T09:14:51;7.13;;;5.18;;
16775;SDS011;8505;49.456;8.164;2023-06-10T09:17:19;10.02;;;5.15;;
16775;SDS011;8505;49.456;8.164;2023-06-10T09:19:47;7.53;;;5.27;;
16775;SDS011;8505;49.456;8.164;2023-06-10T09:22:17;6.75;;;5.30;;
16775;SDS011;8505;49.456;8.164;2023-06-10T09:24:46;6.70;;;4.90;;
16775;SDS011;8505;49.456;8.164;2023-06-10T09:27:14;8.15;;;5.38;;
16775;SDS011;8505;49.456;8.164;2023-06-10T09:29:45;9.82;;;5.70;;
16775;SDS011;8505;49.456;8.164;2023-06-10T09:32:15;7.05;;;5.10;;
16775;SDS011;8505;49.456;8.164;2023-06-10T09:34:45;8.50;;;5.55;;
16775;SDS011;8505;49.456;8.164;2023-06-10T09:37:14;6.67;;;5.00;;
16775;SDS011;8505;49.456;8.164;2023-06-10T09:40:00;6.55;;;5.20;;
16775;SDS011;8505;49.456;8.164;2023-06-10T09:42:32;6.45;;;5.65;;
16775;SDS011;8505;49.456;8.164;2023-06-10T09:45:01;8.07;;;5.72;;
16775;SDS011;8505;49.456;8.164;2023-06-10T09:47:29;7.50;;;5.45;;
16775;SDS011;8505;49.456;8.164;2023-06-10T09:49:56;7.97;;;5.93;;
16775;SDS011;8505;49.456;8.164;2023-06-10T09:52:26;7.53;;;5.50;;
16775;SDS011;8505;49.456;8.164;2023-06-10T09:54:58;6.30;;;5.22;;
16775;SDS011;8505;49.456;8.164;2023-06-10T09:57:30;7.13;;;5.65;;
16775;SDS011;8505;49.456;8.164;2023-06-10T09:59:59;6.80;;;5.68;;
16775;SDS011;8505;49.456;8.164;2023-06-10T10:02:32;6.07;;;5.47;;
16775;SDS011;8505;49.456;8.164;2023-06-10T10:05:02;7.80;;;5.63;;
16775;SDS011;8505;49.456;8.164;2023-06-10T10:07:32;8.25;;;5.40;;
16775;SDS011;8505;49.456;8.164;2023-06-10T10:10:00;10.23;;;5.30;;
16775;SDS011;8505;49.456;8.164;2023-06-10T10:12:28;5.95;;;5.35;;
16775;SDS011;8505;49.456;8.164;2023-06-10T10:14:57;7.70;;;5.35;;
16775;SDS011;8505;49.456;8.164;2023-06-10T10:17:25;8.55;;;5.55;;
16775;SDS011;8505;49.456;8.164;2023-06-10T10:19:55;6.78;;;5.65;;
16775;SDS011;8505;49.456;8.164;2023-06-10T10:22:26;6.25;;;5.43;;
16775;SDS011;8505;49.456;8.164;2023-06-10T10:25:01;6.23;;;5.40;;
16775;SDS011;8505;49.456;8.164;2023-06-10T10:27:35;8.23;;;5.53;;
16775;SDS011;8505;49.456;8.164;2023-06-10T10:30:08;7.60;;;5.60;;
16775;SDS011;8505;49.456;8.164;2023-06-10T10:32:40;6.78;;;6.05;;
16775;SDS011;8505;49.456;8.164;2023-06-10T10:35:16;6.97;;;5.80;;
16775;SDS011;8505;49.456;8.164;2023-06-10T10:37:48;6.97;;;5.97;;
16775;SDS011;8505;49.456;8.164;2023-06-10T10:40:17;7.70;;;6.10;;
16775;SDS011;8505;49.456;8.164;2023-06-10T10:42:48;7.47;;;5.87;;
16775;SDS011;8505;49.456;8.164;2023-06-10T10:45:17;6.57;;;5.97;;
16775;SDS011;8505;49.456;8.164;2023-06-10T10:47:46;7.43;;;5.57;;
16775;SDS011;8505;49.456;8.164;2023-06-10T10:50:19;7.70;;;5.72;;
16775;SDS011;8505;49.456;8.164;2023-06-10T10:52:51;8.27;;;5.80;;
16775;SDS011;8505;49.456;8.164;2023-06-10T10:55:22;7.00;;;5.75;;
16775;SDS011;8505;49.456;8.164;2023-06-10T10:57:54;6.63;;;5.75;;
16775;SDS011;8505;49.456;8.164;2023-06-10T11:00:29;6.80;;;6.00;;
16775;SDS011;8505;49.456;8.164;2023-06-10T11:02:59;7.60;;;5.75;;
16775;SDS011;8505;49.456;8.164;2023-06-10T11:05:37;8.40;;;6.20;;
16775;SDS011;8505;49.456;8.164;2023-06-10T11:08:08;7.15;;;6.00;;
16775;SDS011;8505;49.456;8.164;2023-06-10T11:10:38;8.52;;;5.68;;
16775;SDS011;8505;49.456;8.164;2023-06-10T11:13:08;7.53;;;5.28;;
16775;SDS011;8505;49.456;8.164;2023-06-10T11:15:43;6.50;;;5.40;;
16775;SDS011;8505;49.456;8.164;2023-06-10T11:18:14;7.45;;;5.85;;
16775;SDS011;8505;49.456;8.164;2023-06-10T11:20:57;8.13;;;5.50;;
16775;SDS011;8505;49.456;8.164;2023-06-10T11:23:29;8.07;;;5.60;;
16775;SDS011;8505;49.456;8.164;2023-06-10T11:26:12;8.97;;;5.40;;
16775;SDS011;8505;49.456;8.164;2023-06-10T11:28:42;7.53;;;5.28;;
16775;SDS011;8505;49.456;8.164;2023-06-10T11:31:32;7.45;;;5.65;;
16775;SDS011;8505;49.456;8.164;2023-06-10T11:34:01;7.40;;;5.72;;
16775;SDS011;8505;49.456;8.164;2023-06-10T11:36:31;9.82;;;5.55;;
16775;SDS011;8505;49.456;8.164;2023-06-10T11:39:01;7.18;;;5.15;;
16775;SDS011;8505;49.456;8.164;2023-06-10T11:41:31;5.38;;;4.47;;
16775;SDS011;8505;49.456;8.164;2023-06-10T11:44:01;6.65;;;4.90;;
16775;SDS011;8505;49.456;8.164;2023-06-10T11:46:30;8.32;;;4.57;;
16775;SDS011;8505;49.456;8.164;2023-06-10T11:48:58;5.50;;;4.50;;
16775;SDS011;8505;49.456;8.164;2023-06-10T11:51:27;6.47;;;4.32;;
16775;SDS011;8505;49.456;8.164;2023-06-10T11:53:56;9.18;;;4.65;;
16775;SDS011;8505;49.456;8.164;2023-06-10T11:56:24;5.95;;;4.40;;
16775;SDS011;8505;49.456;8.164;2023-06-10T11:58:56;5.70;;;4.25;;
16775;SDS011;8505;49.456;8.164;2023-06-10T12:01:25;5.28;;;4.07;;
16775;SDS011;8505;49.456;8.164;2023-06-10T12:03:59;5.90;;;3.88;;
16775;SDS011;8505;49.456;8.164;2023-06-10T12:06:28;5.68;;;3.88;;
16775;SDS011;8505;49.456;8.164;2023-06-10T12:09:06;6.10;;;4.18;;
16775;SDS011;8505;49.456;8.164;2023-06-10T12:11:51;7.65;;;4.00;;
16775;SDS011;8505;49.456;8.164;2023-06-10T12:17:23;4.78;;;3.63;;
16775;SDS011;8505;49.456;8.164;2023-06-10T12:20:04;5.20;;;3.83;;
16775;SDS011;8505;49.456;8.164;2023-06-10T12:22:36;5.28;;;3.70;;
16775;SDS011;8505;49.456;8.164;2023-06-10T12:25:05;5.60;;;3.70;;
16775;SDS011;8505;49.456;8.164;2023-06-10T12:27:35;4.70;;;3.72;;
16775;SDS011;8505;49.456;8.164;2023-06-10T12:30:06;5.32;;;3.83;;
16775;SDS011;8505;49.456;8.164;2023-06-10T12:32:34;5.20;;;3.90;;
16775;SDS011;8505;49.456;8.164;2023-06-10T12:35:04;4.93;;;3.80;;
16775;SDS011;8505;49.456;8.164;2023-06-10T12:37:34;5.40;;;3.90;;
16775;SDS011;8505;49.456;8.164;2023-06-10T12:40:08;4.78;;;3.75;;
16775;SDS011;8505;49.456;8.164;2023-06-10T12:42:36;5.37;;;3.87;;
16775;SDS011;8505;49.456;8.164;2023-06-10T12:45:07;6.28;;;3.65;;
16775;SDS011;8505;49.456;8.164;2023-06-10T12:47:37;4.22;;;3.70;;
16775;SDS011;8505;49.456;8.164;2023-06-10T12:50:06;5.73;;;3.70;;
16775;SDS011;8505;49.456;8.164;2023-06-10T12:52:35;4.45;;;3.70;;
16775;SDS011;8505;49.456;8.164;2023-06-10T12:55:03;4.68;;;3.85;;
16775;SDS011;8505;49.456;8.164;2023-06-10T12:57:31;5.70;;;3.70;;
16775;SDS011;8505;49.456;8.164;2023-06-10T12:59:59;5.13;;;3.60;;
16775;SDS011;8505;49.456;8.164;2023-06-10T13:02:32;4.60;;;3.58;;
16775;SDS011;8505;49.456;8.164;2023-06-10T13:05:01;5.45;;;3.60;;
16775;SDS011;8505;49.456;8.164;2023-06-10T13:07:30;5.00;;;3.60;;
16775;SDS011;8505;49.456;8.164;2023-06-10T13:09:59;4.82;;;3.42;;
16775;SDS011;8505;49.456;8.164;2023-06-10T13:12:27;4.35;;;3.53;;
16775;SDS011;8505;49.456;8.164;2023-06-10T13:15:13;4.00;;;3.50;;
16775;SDS011;8505;49.456;8.164;2023-06-10T13:17:43;5.37;;;3.60;;
16775;SDS011;8505;49.456;8.164;2023-06-10T13:20:12;4.25;;;3.60;;
16775;SDS011;8505;49.456;8.164;2023-06-10T13:22:40;4.82;;;3.70;;
16775;SDS011;8505;49.456;8.164;2023-06-10T13:25:08;4.97;;;4.00;;
16775;SDS011;8505;49.456;8.164;2023-06-10T13:27:37;4.82;;;3.80;;
16775;SDS011;8505;49.456;8.164;2023-06-10T13:30:05;4.78;;;4.13;;
16775;SDS011;8505;49.456;8.164;2023-06-10T13:32:35;8.23;;;4.25;;
16775;SDS011;8505;49.456;8.164;2023-06-10T13:35:04;4.88;;;4.15;;
16775;SDS011;8505;49.456;8.164;2023-06-10T13:37:34;4.70;;;3.92;;
16775;SDS011;8505;49.456;8.164;2023-06-10T13:40:03;6.28;;;4.07;;
16775;SDS011;8505;49.456;8.164;2023-06-10T13:42:31;4.97;;;4.10;;
16775;SDS011;8505;49.456;8.164;2023-06-10T13:45:02;4.60;;;3.97;;
16775;SDS011;8505;49.456;8.164;2023-06-10T13:47:30;6.03;;;3.85;;
16775;SDS011;8505;49.456;8.164;2023-06-10T13:49:58;4.03;;;3.63;;
16775;SDS011;8505;49.456;8.164;2023-06-10T13:52:27;6.05;;;3.90;;
16775;SDS011;8505;49.456;8.164;2023-06-10T13:54:55;4.15;;;3.67;;
16775;SDS011;8505;49.456;8.164;2023-06-10T13:57:23;4.47;;;3.70;;
16775;SDS011;8505;49.456;8.164;2023-06-10T13:59:51;4.38;;;3.75;;
16775;SDS011;8505;49.456;8.164;2023-06-10T14:02:19;5.30;;;3.80;;
16775;SDS011;8505;49.456;8.164;2023-06-10T14:04:47;5.18;;;4.15;;
16775;SDS011;8505;49.456;8.164;2023-06-10T14:07:15;5.63;;;3.80;;
16775;SDS011;8505;49.456;8.164;2023-06-10T14:09:44;5.60;;;4.00;;
16775;SDS011;8505;49.456;8.164;2023-06-10T14:12:12;4.30;;;3.90;;
16775;SDS011;8505;49.456;8.164;2023-06-10T14:14:40;5.53;;;4.03;;
16775;SDS011;8505;49.456;8.164;2023-06-10T14:17:08;4.73;;;3.90;;
16775;SDS011;8505;49.456;8.164;2023-06-10T14:19:36;5.43;;;4.07;;
16775;SDS011;8505;49.456;8.164;2023-06-10T14:22:04;4.63;;;3.60;;
16775;SDS011;8505;49.456;8.164;2023-06-10T14:24:33;4.95;;;3.90;;
16775;SDS011;8505;49.456;8.164;2023-06-10T14:27:03;4.50;;;3.70;;
16775;SDS011;8505;49.456;8.164;2023-06-10T14:29:31;5.13;;;4.07;;
16775;SDS011;8505;49.456;8.164;2023-06-10T14:32:00;5.57;;;3.70;;
16775;SDS011;8505;49.456;8.164;2023-06-10T14:34:31;4.22;;;3.70;;
16775;SDS011;8505;49.456;8.164;2023-06-10T14:37:00;5.60;;;3.90;;
16775;SDS011;8505;49.456;8.164;2023-06-10T14:39:29;5.38;;;3.90;;
16775;SDS011;8505;49.456;8.164;2023-06-10T14:41:57;5.80;;;4.07;;
16775;SDS011;8505;49.456;8.164;2023-06-10T14:44:26;5.07;;;4.13;;
16775;SDS011;8505;49.456;8.164;2023-06-10T14:46:54;5.72;;;3.90;;
16775;SDS011;8505;49.456;8.164;2023-06-10T14:49:22;5.35;;;3.72;;
16775;SDS011;8505;49.456;8.164;2023-06-10T14:51:50;8.43;;;3.90;;
16775;SDS011;8505;49.456;8.164;2023-06-10T14:54:18;5.07;;;3.97;;
16775;SDS011;8505;49.456;8.164;2023-06-10T14:56:46;5.25;;;4.18;;
16775;SDS011;8505;49.456;8.164;2023-06-10T14:59:13;5.50;;;4.00;;
16775;SDS011;8505;49.456;8.164;2023-06-10T15:01:43;5.35;;;3.90;;
16775;SDS011;8505;49.456;8.164;2023-06-10T15:04:11;4.13;;;3.70;;
16775;SDS011;8505;49.456;8.164;2023-06-10T15:06:39;5.38;;;3.90;;